Time;durP1;ratioP1;P1;durP2;ratioP2;P2;SDS_P1;SDS_P2;PMS_P1;PMS_P2;Temp;Humidity;BMP_temperature;BMP_pressure;BME280_temperature;BME280_humidity;BME280_pressure;Samples;Min_cycle;Max_cycle;Signal;HPM_P1;HPM_P2
2021/12/23 00:01:17;;;;;;;39.07;24.00;;;;;;;-4.63;88.19;101557.03;10447600;28;20029;-83
2021/12/23 00:06:18;;;;;;;40.83;29.17;;;;;;;-4.58;87.99;101552.47;10474358;28;20056;-83
2021/12/23 00:11:18;;;;;;;35.53;22.00;;;;;;;-4.53;87.66;101553.03;10441062;28;20029;-83
2021/12/23 00:16:30;;;;;;;39.47;25.47;;;;;;;-4.66;87.80;101527.63;10457880;28;20048;-83
2021/12/23 00:26:49;;;;;;;37.67;24.23;;;;;;;-4.78;87.45;101538.22;10458324;28;20025;-84
2021/12/23 00:31:49;;;;;;;37.67;21.33;;;;;;;-4.84;87.40;101514.50;10440254;28;20108;-83
2021/12/23 00:36:52;;;;;;;42.10;25.10;;;;;;;-4.91;87.50;101491.50;10456045;28;20072;-83
2021/12/23 00:41:54;;;;;;;48.50;27.42;;;;;;;-4.77;88.01;101488.97;10458388;28;20068;-83
2021/12/23 00:46:55;;;;;;;38.90;23.75;;;;;;;-4.68;87.64;101470.34;10455166;28;20480;-83
2021/12/23 00:51:57;;;;;;;45.97;26.73;;;;;;;-4.65;87.16;101488.59;10456392;28;20060;-83
2021/12/23 00:56:58;;;;;;;43.50;26.35;;;;;;;-4.57;87.66;101491.34;10438688;28;20112;-83
2021/12/23 01:01:58;;;;;;;31.77;19.73;;;;;;;-4.69;87.76;101471.06;10455620;28;20520;-83
2021/12/23 01:06:59;;;;;;;41.20;26.87;;;;;;;-4.76;87.74;101460.13;10487420;28;20112;-83
2021/12/23 01:11:59;;;;;;;44.23;26.57;;;;;;;-4.81;87.95;101430.59;10454103;28;20013;-83
2021/12/23 01:17:22;;;;;;;37.97;27.07;;;;;;;-4.68;87.21;101432.97;10454229;28;20025;-83
2021/12/23 01:22:20;;;;;;;38.38;23.02;;;;;;;-4.70;86.80;101439.53;10456734;28;20040;-83
2021/12/23 01:27:21;;;;;;;40.93;22.80;;;;;;;-4.85;86.37;101441.16;10454030;28;20033;-83
2021/12/23 01:32:22;;;;;;;42.80;27.20;;;;;;;-4.85;86.58;101443.72;10435173;28;20067;-83
2021/12/23 01:37:22;;;;;;;41.37;23.20;;;;;;;-4.89;86.81;101431.31;10454683;28;20095;-82
2021/12/23 01:42:23;;;;;;;48.07;26.63;;;;;;;-4.89;87.04;101432.25;10454210;28;20136;-83
2021/12/23 01:47:23;;;;;;;47.10;30.37;;;;;;;-4.72;87.44;101448.66;10454274;28;20025;-83
2021/12/23 01:52:25;;;;;;;40.30;24.17;;;;;;;-4.70;87.60;101465.06;10453313;28;20091;-83
2021/12/23 01:57:25;;;;;;;45.45;27.20;;;;;;;-4.67;88.42;101454.28;10453460;28;20041;-83
2021/12/23 02:02:26;;;;;;;44.30;26.57;;;;;;;-4.56;88.10;101441.13;10466553;28;20028;-83
2021/12/23 02:07:26;;;;;;;43.90;27.30;;;;;;;-4.57;88.14;101440.22;10453564;28;20115;-83
2021/12/23 02:12:27;;;;;;;56.53;26.27;;;;;;;-4.58;88.29;101455.38;10452895;28;20113;-83
2021/12/23 02:17:27;;;;;;;56.07;29.33;;;;;;;-4.60;88.11;101452.66;10451458;28;20064;-82
2021/12/23 02:22:28;;;;;;;54.37;28.50;;;;;;;-4.60;88.57;101428.72;10451128;28;20120;-83
2021/12/23 02:27:28;;;;;;;35.93;20.60;;;;;;;-4.54;88.42;101413.22;10436309;28;20029;-82
2021/12/23 02:32:29;;;;;;;54.17;32.50;;;;;;;-4.60;88.49;101401.56;10467893;28;20065;-83
2021/12/23 02:37:29;;;;;;;63.63;37.33;;;;;;;-4.64;88.62;101401.94;10484133;28;20080;-83
2021/12/23 02:42:30;;;;;;;52.73;32.47;;;;;;;-4.85;88.43;101409.63;10452238;28;20468;-82
2021/12/23 02:47:31;;;;;;;49.60;31.33;;;;;;;-4.96;88.63;101403.25;10452910;28;20116;-83
2021/12/23 02:52:32;;;;;;;51.88;31.08;;;;;;;-4.93;88.90;101390.84;10444778;28;20025;-83
2021/12/23 02:57:33;;;;;;;56.13;35.92;;;;;;;-4.90;89.31;101391.19;10435534;28;20068;-83
2021/12/23 03:02:37;;;;;;;53.60;33.03;;;;;;;-4.93;89.42;101394.31;10458384;28;20035;-83
2021/12/23 03:07:37;;;;;;;53.97;32.70;;;;;;;-4.95;89.40;101376.97;10458488;28;20083;-82
2021/12/23 03:12:38;;;;;;;49.60;30.37;;;;;;;-5.12;89.17;101360.59;10458644;28;20409;-83
2021/12/23 03:17:38;;;;;;;46.57;33.13;;;;;;;-5.12;89.43;101350.38;10491932;28;20044;-82
2021/12/23 03:22:39;;;;;;;56.47;33.83;;;;;;;-5.06;89.35;101329.78;10461916;28;20036;-83
2021/12/23 03:27:39;;;;;;;57.93;30.57;;;;;;;-4.98;89.17;101318.81;10460609;28;20571;-82
2021/12/23 03:32:40;;;;;;;53.87;34.87;;;;;;;-4.87;89.37;101350.69;10440194;28;20397;-82
2021/12/23 03:37:40;;;;;;;47.60;31.10;;;;;;;-5.04;89.01;101336.88;10442245;28;20051;-82
2021/12/23 03:42:41;;;;;;;51.37;30.17;;;;;;;-5.07;89.14;101327.97;10458906;28;20063;-82
2021/12/23 03:47:42;;;;;;;48.53;31.40;;;;;;;-4.96;89.27;101330.13;10458906;28;20116;-82
2021/12/23 03:52:43;;;;;;;53.10;34.90;;;;;;;-4.89;89.31;101316.41;10457222;28;20111;-82
2021/12/23 03:57:44;;;;;;;56.70;32.60;;;;;;;-4.90;89.25;101319.69;10442086;28;20443;-82
2021/12/23 04:02:45;;;;;;;55.83;33.13;;;;;;;-4.95;89.08;101331.03;10458095;28;20074;-83
2021/12/23 04:07:46;;;;;;;51.07;34.23;;;;;;;-4.97;89.03;101320.66;10456077;28;20055;-82
2021/12/23 04:12:46;;;;;;;56.60;32.40;;;;;;;-4.96;89.45;101296.00;10456751;28;20037;-82
2021/12/23 04:17:47;;;;;;;51.33;31.17;;;;;;;-5.01;89.50;101286.16;10457862;28;20037;-83
2021/12/23 04:22:52;;;;;;;48.27;29.67;;;;;;;-5.10;89.39;101291.88;10456991;28;20108;-82
2021/12/23 04:27:55;;;;;;;49.55;30.58;;;;;;;-5.14;89.28;101272.72;10454391;28;20029;-86
2021/12/23 04:32:56;;;;;;;54.13;34.00;;;;;;;-4.98;89.59;101271.94;10436285;28;20041;-86
2021/12/23 04:37:56;;;;;;;87.03;56.43;;;;;;;-5.11;89.34;101288.38;10457832;28;20041;-86
2021/12/23 04:42:57;;;;;;;45.40;31.60;;;;;;;-5.03;89.34;101228.03;10487712;28;20068;-83
2021/12/23 04:47:58;;;;;;;58.63;33.43;;;;;;;-4.99;89.25;101226.72;10456191;28;20575;-84
2021/12/23 04:52:58;;;;;;;56.93;34.83;;;;;;;-4.87;89.62;101235.78;10456105;28;20056;-90
2021/12/23 04:57:59;;;;;;;45.07;30.40;;;;;;;-4.88;89.60;101228.84;10437548;28;20378;-83
2021/12/23 05:02:59;;;;;;;31.93;22.30;;;;;;;-4.99;89.56;101221.59;10455105;28;20048;-83
2021/12/23 05:08:00;;;;;;;52.43;32.90;;;;;;;-4.97;89.75;101222.69;10438781;28;20025;-84
2021/12/23 05:13:02;;;;;;;53.97;29.47;;;;;;;-4.89;89.90;101227.97;10453628;28;20127;-82
2021/12/23 05:18:02;;;;;;;;;;;;;;;-4.75;89.92;101215.88;10456572;28;20091;-82
2021/12/23 05:23:03;;;;;;;50.75;33.20;;;;;;;-4.73;90.08;101182.09;10454228;28;19948;-84
2021/12/23 05:28:03;;;;;;;49.27;30.30;;;;;;;-4.61;89.79;101186.75;10454489;28;20029;-84
2021/12/23 05:33:04;;;;;;;47.27;31.23;;;;;;;-4.54;90.20;101185.81;10453755;28;20049;-85
2021/12/23 05:38:04;;;;;;;37.13;20.67;;;;;;;-4.51;89.85;101152.97;10455191;28;20084;-85
2021/12/23 05:43:05;;;;;;;52.90;31.90;;;;;;;-4.38;90.08;101162.88;10453647;28;20048;-85
2021/12/23 05:48:06;;;;;;;34.30;22.60;;;;;;;-4.31;90.21;101155.16;10452305;28;20052;-85
2021/12/23 05:53:06;;;;;;;45.73;24.07;;;;;;;-4.20;90.08;101170.06;10435502;28;20056;-85
2021/12/23 05:58:07;;;;;;;49.25;32.75;;;;;;;-4.00;89.55;101171.34;10486643;28;20032;-86
2021/12/23 06:03:07;;;;;;;46.80;29.60;;;;;;;-4.08;89.23;101165.41;10451891;28;20060;-87
2021/12/23 06:08:08;;;;;;;49.97;30.83;;;;;;;-4.14;89.56;101157.94;10435823;28;20025;-88
2021/12/23 06:13:08;;;;;;;44.37;29.03;;;;;;;-4.21;89.25;101139.22;10450739;28;20480;-87
2021/12/23 06:18:09;;;;;;;52.20;30.27;;;;;;;-4.17;89.40;101132.03;10435453;28;20060;-88
2021/12/23 06:23:09;;;;;;;56.33;30.80;;;;;;;-4.06;89.47;101137.44;10452442;28;20468;-87
2021/12/23 06:28:10;;;;;;;53.47;31.93;;;;;;;-3.86;89.47;101145.66;10451966;28;20077;-87
2021/12/23 06:33:12;;;;;;;45.23;28.87;;;;;;;-3.79;88.91;101146.31;10453547;28;20457;-87
2021/12/23 06:38:12;;;;;;;46.42;30.30;;;;;;;-3.86;89.15;101158.44;10452879;28;20041;-88
2021/12/23 06:43:13;;;;;;;51.07;31.87;;;;;;;-3.87;88.81;101137.81;10451509;28;20044;-87
2021/12/23 06:48:13;;;;;;;47.47;30.63;;;;;;;-3.89;89.19;101132.53;10484652;28;20091;-87
2021/12/23 06:53:14;;;;;;;55.50;28.65;;;;;;;-3.90;88.82;101132.38;10435694;28;20473;-87
2021/12/23 06:58:14;;;;;;;44.35;29.50;;;;;;;-3.91;88.83;101115.22;10452454;28;20072;-87
2021/12/23 07:03:15;;;;;;;47.97;31.70;;;;;;;-3.90;89.06;101112.81;10452062;28;20119;-87
2021/12/23 07:08:27;;;;;;;49.43;27.83;;;;;;;-3.87;89.34;101115.69;10453387;28;20018;-87
2021/12/23 07:13:27;;;;;;;49.25;30.38;;;;;;;-3.87;89.48;101102.91;10449855;28;20052;-86
2021/12/23 07:18:28;;;;;;;46.72;31.33;;;;;;;-3.77;89.15;101109.03;10450084;28;20079;-87
2021/12/23 07:23:29;;;;;;;50.90;34.83;;;;;;;-3.82;89.33;101116.22;10447158;28;20539;-88
2021/12/23 07:28:30;;;;;;;53.03;30.23;;;;;;;-3.81;88.68;101102.69;10434603;28;20025;-88
2021/12/23 07:33:30;;;;;;;49.77;30.67;;;;;;;-3.67;89.33;101110.94;10484272;28;20126;-88
2021/12/23 07:38:32;;;;;;;50.57;33.90;;;;;;;-3.61;89.40;101106.50;10468406;28;20119;-88
2021/12/23 07:48:33;;;;;;;50.88;32.88;;;;;;;-3.46;89.09;101105.56;10469054;28;20025;-88
2021/12/23 07:53:34;;;;;;;38.37;23.43;;;;;;;-3.43;89.08;101108.47;10441978;28;20507;-88
2021/12/23 07:58:34;;;;;;;50.13;30.05;;;;;;;-3.33;88.98;101114.56;10491076;28;20064;-87
2021/12/23 08:03:35;;;;;;;39.65;25.50;;;;;;;-3.30;88.74;101103.00;10442566;28;20057;-88
2021/12/23 08:08:36;;;;;;;46.20;30.80;;;;;;;-3.25;89.10;101096.72;10457202;28;20035;-87
2021/12/23 08:13:36;;;;;;;49.40;30.23;;;;;;;-3.14;89.24;101079.94;10460530;28;20108;-88
2021/12/23 08:18:37;;;;;;;46.72;29.63;;;;;;;-3.09;88.97;101080.41;10463297;28;20119;-88
2021/12/23 08:23:38;;;;;;;46.97;30.23;;;;;;;-2.95;88.96;101071.63;10452672;28;20021;-88
2021/12/23 08:28:38;;;;;;;49.28;32.97;;;;;;;-2.85;89.49;101078.59;10456606;28;20528;-87
2021/12/23 08:33:39;;;;;;;48.22;30.48;;;;;;;-2.82;89.07;101061.91;10457269;28;20083;-89
2021/12/23 08:38:40;;;;;;;54.85;37.97;;;;;;;-2.69;88.55;101064.06;10438683;28;20126;-89
2021/12/23 08:43:40;;;;;;;46.08;30.42;;;;;;;-2.62;88.68;101057.03;10467356;28;20083;-87
2021/12/23 08:48:41;;;;;;;46.30;29.48;;;;;;;-2.54;88.70;101056.16;10463833;28;20053;-86
2021/12/23 08:53:41;;;;;;;44.08;28.27;;;;;;;-2.36;88.60;101057.16;10446134;28;20057;-86
2021/12/23 08:58:42;;;;;;;42.70;27.00;;;;;;;-2.24;88.00;101060.97;10454009;28;20044;-86
2021/12/23 09:03:42;;;;;;;45.75;30.13;;;;;;;-1.99;88.45;101037.81;10486666;28;20079;-88
2021/12/23 09:08:44;;;;;;;45.03;28.95;;;;;;;-1.84;87.27;101040.97;10470781;28;20477;-87
2021/12/23 09:13:44;;;;;;;36.97;21.23;;;;;;;-1.65;85.59;101040.25;10453519;28;20073;-88
2021/12/23 09:18:45;;;;;;;38.38;28.67;;;;;;;-1.49;84.82;101028.16;10452912;28;20036;-85
2021/12/23 09:23:46;;;;;;;32.63;23.98;;;;;;;-1.24;84.97;101030.56;10451748;28;20523;-91
2021/12/23 09:28:59;;;;;;;38.33;25.10;;;;;;;-0.97;82.02;101018.59;10473166;28;20157;-91
2021/12/23 09:34:00;;;;;;;37.15;27.88;;;;;;;-0.82;82.38;101015.66;10469965;28;20075;-89
2021/12/23 09:39:01;;;;;;;41.38;28.80;;;;;;;-0.79;81.27;101021.09;10472134;28;20051;-89
2021/12/23 09:44:02;;;;;;;40.97;24.98;;;;;;;-0.31;82.41;101023.94;10436501;28;20127;-90
2021/12/23 09:49:04;;;;;;;34.42;23.52;;;;;;;-0.01;79.66;101024.97;10466017;28;20032;-89
2021/12/23 09:54:06;;;;;;;28.85;19.95;;;;;;;-0.01;80.78;101017.25;10452042;28;20108;-89
2021/12/23 09:59:08;;;;;;;34.63;20.20;;;;;;;-0.14;80.17;101011.72;10457429;28;20029;-89
2021/12/23 10:04:08;;;;;;;36.50;21.65;;;;;;;-0.01;80.27;101001.81;10439500;28;20074;-88
2021/12/23 10:09:14;;;;;;;34.65;23.05;;;;;;;0.02;78.73;101000.28;10458856;28;20037;-88
2021/12/23 10:30:44;;;;;;;90.68;55.55;;;;;;;0.03;79.98;100964.41;10468431;28;20378;-88
2021/12/23 10:41:22;;;;;;;33.47;22.20;;;;;;;0.20;80.06;100947.03;10472179;28;20509;-90
2021/12/23 10:46:37;;;;;;;39.53;19.25;;;;;;;0.23;78.49;100930.16;10470509;28;20030;-90
2021/12/23 10:51:56;;;;;;;36.15;19.77;;;;;;;0.27;80.48;100919.38;10424857;28;20537;-89
2021/12/23 11:02:26;;;;;;;46.35;23.40;;;;;;;0.45;79.32;100908.03;10452485;28;20040;-88
2021/12/23 11:08:18;;;;;;;42.05;22.80;;;;;;;0.53;77.78;100901.88;10450596;28;20032;-90
2021/12/23 11:40:11;;;;;;;35.53;20.42;;;;;;;1.51;77.24;100822.50;10433200;28;20119;-87
2021/12/23 11:45:12;;;;;;;;;;;;;;;1.68;76.57;100814.50;10456073;28;20029;-87
2021/12/23 11:50:29;;;;;;;31.90;19.23;;;;;;;1.94;75.60;100802.81;10499407;28;19916;-84
2021/12/23 11:55:29;;;;;;;33.25;20.90;;;;;;;2.31;75.27;100798.03;10464710;28;20048;-85
2021/12/23 12:00:42;;;;;;;28.55;18.83;;;;;;;2.51;74.72;100793.53;10458717;28;20115;-84
2021/12/23 12:05:45;;;;;;;37.53;19.75;;;;;;;2.81;73.91;100790.66;10480105;28;20074;-86
2021/12/23 12:10:46;;;;;;;40.33;19.40;;;;;;;2.97;74.65;100785.88;10500967;28;20063;-85
2021/12/23 12:15:47;;;;;;;32.15;20.63;;;;;;;3.55;72.77;100778.16;10430608;28;20025;-86
2021/12/23 12:21:02;;;;;;;28.35;17.15;;;;;;;3.73;72.24;100760.47;10476046;28;20120;-85
2021/12/23 12:26:10;;;;;;;30.02;18.40;;;;;;;3.79;71.94;100755.75;10454943;28;20033;-86
2021/12/23 12:31:13;;;;;;;30.92;16.85;;;;;;;3.92;72.80;100744.59;10460899;28;20480;-85
2021/12/23 12:36:15;;;;;;;35.55;21.05;;;;;;;4.04;73.11;100728.16;10459696;28;20512;-84
2021/12/23 12:41:26;;;;;;;32.90;18.08;;;;;;;4.11;72.85;100717.44;10471969;28;20040;-85
2021/12/23 12:46:42;;;;;;;29.88;18.67;;;;;;;4.07;73.19;100715.41;10475615;28;20128;-85
2021/12/23 12:51:46;;;;;;;29.02;18.02;;;;;;;3.93;73.50;100714.41;10480266;28;20075;-84
2021/12/23 12:56:57;;;;;;;30.13;17.70;;;;;;;3.75;74.00;100707.13;10475876;28;20119;-83
2021/12/23 13:02:01;;;;;;;34.80;20.33;;;;;;;3.79;74.43;100706.56;10479650;28;20021;-82
2021/12/23 13:07:28;;;;;;;29.77;18.80;;;;;;;3.81;74.61;100696.31;10478038;28;20025;-83
2021/12/23 13:12:34;;;;;;;28.13;18.95;;;;;;;3.94;73.52;100675.69;10449023;28;20460;-81
2021/12/23 13:17:55;;;;;;;32.72;19.67;;;;;;;4.06;73.88;100677.38;10463921;28;20047;-84
2021/12/23 13:23:12;;;;;;;32.45;20.25;;;;;;;4.18;74.05;100666.94;10459897;28;20029;-82
2021/12/23 13:28:22;;;;;;;31.70;18.60;;;;;;;4.10;74.59;100637.94;10441112;28;20401;-83
2021/12/23 13:33:22;;;;;;;31.50;20.60;;;;;;;3.98;74.93;100640.53;10445482;28;20558;-85
2021/12/23 13:38:30;;;;;;;32.92;18.85;;;;;;;4.04;74.41;100640.09;10453790;28;20051;-85
2021/12/23 13:43:31;;;;;;;32.95;20.33;;;;;;;4.04;74.58;100634.91;10469955;28;20025;-86
2021/12/23 13:48:31;;;;;;;28.25;16.95;;;;;;;4.06;75.58;100641.97;10454732;28;20041;-85
2021/12/23 13:53:33;;;;;;;32.67;18.25;;;;;;;4.05;75.48;100637.59;10454731;28;20076;-86
2021/12/23 13:58:34;;;;;;;29.38;17.42;;;;;;;4.06;75.76;100628.16;10446925;28;20043;-85
2021/12/23 14:03:34;;;;;;;31.27;19.33;;;;;;;3.99;76.41;100611.25;10451033;28;20110;-84
2021/12/23 14:08:35;;;;;;;34.15;18.17;;;;;;;3.93;76.26;100611.75;10451472;28;20490;-85
2021/12/23 14:13:35;;;;;;;36.20;19.65;;;;;;;3.82;76.77;100623.03;10436509;28;20045;-86
2021/12/23 14:23:42;;;;;;;36.63;22.83;;;;;;;3.60;77.77;100637.03;10471794;28;20040;-86
2021/12/23 14:28:47;;;;;;;33.13;21.48;;;;;;;3.63;78.05;100628.59;10474605;28;20101;-86
2021/12/23 14:33:49;;;;;;;34.13;19.50;;;;;;;3.64;78.30;100635.56;10494796;28;20120;-86
2021/12/23 14:39:05;;;;;;;32.20;19.73;;;;;;;3.56;78.96;100619.50;10495534;28;20078;-86
2021/12/23 14:44:16;;;;;;;38.05;20.20;;;;;;;3.54;79.12;100626.25;10478538;28;20043;-87
2021/12/23 14:54:54;;;;;;;35.83;19.55;;;;;;;3.46;79.36;100620.50;10435511;28;20025;-89
2021/12/23 15:00:00;;;;;;;32.33;20.17;;;;;;;3.42;79.77;100626.25;10461760;28;20037;-88
2021/12/23 15:05:08;;;;;;;36.20;19.95;;;;;;;3.43;80.37;100620.28;10428614;28;20086;-90
2021/12/23 15:10:09;;;;;;;37.13;20.75;;;;;;;3.48;80.29;100620.63;10460439;28;20024;-87
2021/12/23 15:15:10;;;;;;;32.15;21.42;;;;;;;3.38;80.62;100630.31;10443378;28;20056;-87
2021/12/23 15:20:22;;;;;;;37.30;24.15;;;;;;;3.29;81.18;100644.25;10460294;28;20079;-88
2021/12/23 15:25:33;;;;;;;39.53;24.83;;;;;;;3.25;81.57;100619.88;10443540;28;20033;-88
2021/12/23 15:30:34;;;;;;;40.33;21.27;;;;;;;3.22;81.48;100614.47;10443241;28;20052;-87
2021/12/23 15:35:35;;;;;;;35.45;22.25;;;;;;;3.14;82.47;100624.22;10458783;28;20080;-87
2021/12/23 15:40:36;;;;;;;41.67;23.10;;;;;;;3.11;83.11;100625.72;10444405;28;20044;-88
2021/12/23 15:45:38;;;;;;;38.47;21.07;;;;;;;3.14;83.87;100613.00;10424272;28;20029;-87
2021/12/23 15:50:39;;;;;;;39.00;26.35;;;;;;;3.16;84.38;100617.50;10456840;28;20021;-87
2021/12/23 15:55:40;;;;;;;41.67;23.98;;;;;;;3.18;84.44;100607.28;10443145;28;20032;-88
2021/12/23 16:00:40;;;;;;;38.92;22.73;;;;;;;3.21;84.78;100610.09;10439908;28;20024;-87
2021/12/23 16:10:48;;;;;;;47.25;24.42;;;;;;;3.15;85.45;100659.66;10439587;28;20401;-88
2021/12/23 16:15:48;;;;;;;41.38;23.38;;;;;;;3.15;85.65;100657.06;10425048;28;20041;-88
2021/12/23 16:20:49;;;;;;;40.88;24.05;;;;;;;3.17;86.04;100650.31;10457029;28;20548;-87
2021/12/23 16:25:49;;;;;;;41.20;24.80;;;;;;;3.13;86.27;100648.28;10458621;28;20029;-89
2021/12/23 16:30:50;;;;;;;53.28;30.23;;;;;;;3.13;86.05;100656.06;10422629;28;20043;-87
2021/12/23 16:35:51;;;;;;;44.38;24.88;;;;;;;3.13;86.50;100647.41;10455820;28;20485;-88
2021/12/23 16:40:52;;;;;;;42.78;26.00;;;;;;;3.09;86.96;100656.63;10457987;28;20044;-88
2021/12/23 16:45:53;;;;;;;43.03;27.73;;;;;;;3.12;86.54;100662.00;10440188;28;20473;-89
2021/12/23 16:50:57;;;;;;;49.63;26.30;;;;;;;3.10;86.84;100642.91;10458354;28;20037;-87
2021/12/23 17:00:58;;;;;;;51.20;28.83;;;;;;;3.06;86.84;100652.13;10456623;28;20029;-88
2021/12/23 17:05:59;;;;;;;35.45;20.70;;;;;;;3.08;86.97;100622.09;10459220;28;20025;-88
2021/12/23 17:11:00;;;;;;;51.10;26.90;;;;;;;3.07;86.96;100659.09;10456739;28;20052;-87
2021/12/23 17:16:01;;;;;;;48.87;29.67;;;;;;;3.08;86.78;100653.16;10456743;28;20037;-88
2021/12/23 17:26:07;;;;;;;44.60;26.15;;;;;;;3.04;87.08;100645.94;10474165;28;20064;-88
2021/12/23 17:31:07;;;;;;;53.60;28.95;;;;;;;3.06;86.92;100638.28;10454908;28;20056;-85
2021/12/23 17:36:08;;;;;;;53.72;28.65;;;;;;;3.06;87.27;100652.13;10456182;28;20053;-87
2021/12/23 17:41:08;;;;;;;53.10;31.20;;;;;;;3.08;87.67;100647.97;10487876;28;20029;-83
2021/12/23 17:46:09;;;;;;;52.63;32.50;;;;;;;3.13;87.45;100637.06;10472503;28;20056;-83
2021/12/23 17:51:09;;;;;;;59.25;34.17;;;;;;;3.05;87.31;100632.22;10452999;28;20025;-84
2021/12/23 17:56:10;;;;;;;61.83;33.47;;;;;;;3.02;87.95;100638.84;10460034;28;20484;-82
2021/12/23 18:01:11;;;;;;;53.70;32.63;;;;;;;2.92;88.54;100621.75;10454000;28;20068;-83
2021/12/23 18:06:11;;;;;;;59.53;34.70;;;;;;;2.84;89.24;100617.72;10429928;28;20029;-82
2021/12/23 18:11:13;;;;;;;63.20;35.85;;;;;;;2.79;89.90;100607.94;10437588;28;20500;-83
2021/12/23 18:16:13;;;;;;;75.32;39.85;;;;;;;2.90;90.52;100589.72;10453869;28;20033;-83
2021/12/23 18:21:14;;;;;;;72.13;39.15;;;;;;;2.79;90.47;100600.16;10451254;28;20044;-81
2021/12/23 18:26:14;;;;;;;75.28;43.17;;;;;;;2.81;91.06;100602.84;10452651;28;20441;-83
2021/12/23 18:31:15;;;;;;;67.10;41.20;;;;;;;2.86;91.17;100567.91;10486322;28;20074;-84
2021/12/23 18:36:40;;;;;;;71.45;39.03;;;;;;;2.99;91.17;100572.31;10454802;28;20068;-84
2021/12/23 18:41:37;;;;;;;68.28;39.08;;;;;;;2.99;91.46;100561.06;10452462;28;20559;-83
2021/12/23 18:46:39;;;;;;;79.60;46.08;;;;;;;3.12;91.45;100547.34;10452596;28;20040;-82
2021/12/23 18:51:39;;;;;;;72.67;39.43;;;;;;;3.05;91.47;100544.31;10453434;28;20047;-83
2021/12/23 18:56:40;;;;;;;70.00;40.90;;;;;;;3.09;91.71;100542.84;10451641;28;20105;-82
2021/12/23 19:01:44;;;;;;;82.63;42.25;;;;;;;3.17;91.05;100536.53;10452664;28;20029;-82
2021/12/23 19:06:47;;;;;;;77.65;44.15;;;;;;;3.17;91.61;100518.41;10452555;28;20083;-82
2021/12/23 19:11:48;;;;;;;72.93;41.97;;;;;;;3.20;91.92;100503.13;10435513;28;20024;-82
2021/12/23 19:16:49;;;;;;;70.13;40.70;;;;;;;3.25;91.81;100502.56;10453077;28;20099;-82
2021/12/23 19:21:49;;;;;;;74.43;44.22;;;;;;;3.28;91.91;100493.34;10452024;28;20029;-82
2021/12/23 19:26:50;;;;;;;70.80;42.47;;;;;;;3.31;91.92;100497.81;10451637;28;20029;-81
2021/12/23 19:31:50;;;;;;;72.45;41.20;;;;;;;3.33;91.90;100491.06;10452774;28;20044;-81
2021/12/23 19:36:51;;;;;;;64.60;39.42;;;;;;;3.33;92.19;100491.97;10451404;28;20084;-81
2021/12/23 19:41:51;;;;;;;72.10;41.60;;;;;;;3.39;91.95;100486.31;10452625;28;20047;-82
2021/12/23 19:46:52;;;;;;;75.03;40.83;;;;;;;3.43;92.54;100483.16;10443158;28;20115;-81
2021/12/23 19:51:53;;;;;;;69.00;40.28;;;;;;;3.45;91.95;100489.34;10442093;28;20060;-81
2021/12/23 19:56:54;;;;;;;63.28;39.90;;;;;;;3.47;92.58;100497.22;10455736;28;20033;-81
2021/12/23 20:01:55;;;;;;;66.60;38.22;;;;;;;3.51;92.71;100488.88;10443153;28;20116;-80
2021/12/23 20:06:55;;;;;;;68.63;40.17;;;;;;;3.52;93.12;100488.97;10458647;28;20112;-80
2021/12/23 20:11:56;;;;;;;76.80;46.08;;;;;;;3.56;92.92;100487.50;10456217;28;20123;-80
2021/12/23 20:16:56;;;;;;;72.13;43.92;;;;;;;3.58;93.17;100474.66;10458018;28;20119;-80
2021/12/23 20:21:57;;;;;;;70.00;43.15;;;;;;;3.67;92.78;100486.56;10459006;28;20071;-80
2021/12/23 20:26:57;;;;;;;69.18;45.05;;;;;;;3.75;93.18;100473.25;10456843;28;20064;-81
2021/12/23 20:32:01;;;;;;;78.95;45.05;;;;;;;3.84;93.04;100480.75;10456552;28;20052;-81
2021/12/23 20:37:02;;;;;;;72.88;40.88;;;;;;;3.91;93.47;100483.88;10491009;28;20037;-81
2021/12/23 20:42:03;;;;;;;73.78;40.65;;;;;;;4.01;93.19;100487.09;10457212;28;20460;-81
2021/12/23 20:47:04;;;;;;;79.03;39.83;;;;;;;4.16;93.74;100471.66;10456145;28;20037;-81
2021/12/23 20:52:06;;;;;;;71.72;44.33;;;;;;;4.30;93.37;100468.31;10454557;28;20048;-81
2021/12/23 20:57:07;;;;;;;61.85;38.08;;;;;;;4.38;93.38;100455.88;10455883;28;20021;-81
2021/12/23 21:02:08;;;;;;;74.03;43.60;;;;;;;4.54;93.37;100465.53;10438145;28;20452;-83
2021/12/23 21:07:12;;;;;;;68.63;42.72;;;;;;;4.60;93.54;100452.09;10455595;28;20029;-80
2021/12/23 21:12:13;;;;;;;70.60;39.47;;;;;;;4.69;93.51;100450.09;10423751;28;20033;-81
2021/12/23 21:17:13;;;;;;;74.32;46.90;;;;;;;4.72;93.81;100446.78;10472334;28;20120;-80
2021/12/23 21:22:14;;;;;;;86.15;47.90;;;;;;;4.72;93.96;100449.38;10455902;28;20029;-80
2021/12/23 21:27:15;;;;;;;87.90;48.90;;;;;;;4.68;93.54;100446.59;10456383;28;20381;-80
2021/12/23 21:32:15;;;;;;;80.07;48.88;;;;;;;4.65;93.98;100448.97;10488607;28;20029;-80
2021/12/23 21:37:16;;;;;;;94.32;51.53;;;;;;;4.70;93.70;100437.22;10455628;28;20123;-82
2021/12/23 21:42:16;;;;;;;88.40;48.20;;;;;;;4.72;93.85;100446.78;10454917;28;20086;-81
2021/12/23 21:47:17;;;;;;;82.15;48.15;;;;;;;4.71;93.65;100440.72;10454922;28;20052;-81
2021/12/23 21:52:18;;;;;;;75.70;44.53;;;;;;;4.81;93.96;100444.78;10454556;28;20072;-81
2021/12/23 21:57:19;;;;;;;87.17;42.83;;;;;;;4.81;93.31;100440.50;10437208;28;20032;-80
2021/12/23 22:02:19;;;;;;;91.78;50.13;;;;;;;4.85;93.63;100428.63;10437651;28;20056;-81
2021/12/23 22:07:20;;;;;;;86.28;47.17;;;;;;;4.87;93.92;100416.66;10453125;28;20505;-81
2021/12/23 22:12:20;;;;;;;90.60;48.25;;;;;;;4.90;93.31;100428.94;10454148;28;20060;-80
2021/12/23 22:17:21;;;;;;;91.32;45.85;;;;;;;4.93;93.01;100427.41;10437514;28;20052;-81
2021/12/23 22:22:21;;;;;;;86.57;47.13;;;;;;;5.02;93.20;100418.41;10454648;28;20226;-81
2021/12/23 22:27:22;;;;;;;91.07;45.72;;;;;;;5.03;92.74;100428.00;10452896;28;20035;-80
2021/12/23 22:32:23;;;;;;;83.65;44.67;;;;;;;5.04;93.50;100428.09;10452326;28;20445;-81
2021/12/23 22:37:23;;;;;;;86.03;46.30;;;;;;;5.09;93.15;100428.38;10452464;28;20044;-82
2021/12/23 22:42:24;;;;;;;85.07;48.42;;;;;;;5.13;93.28;100419.97;10453289;28;20094;-80
2021/12/23 22:47:24;;;;;;;93.70;48.20;;;;;;;5.25;92.82;100419.88;10452235;28;20112;-81
2021/12/23 22:52:25;;;;;;;89.25;51.30;;;;;;;5.30;92.87;100418.44;10451929;28;20056;-81
2021/12/23 22:57:28;;;;;;;87.28;48.53;;;;;;;5.33;93.09;100420.31;10454296;28;20036;-81
2021/12/23 23:02:28;;;;;;;85.50;51.47;;;;;;;5.36;92.76;100411.03;10451514;28;20029;-81
2021/12/23 23:07:29;;;;;;;86.75;47.08;;;;;;;5.41;93.19;100412.22;10452881;28;20485;-81
2021/12/23 23:12:35;;;;;;;95.45;49.78;;;;;;;5.36;93.05;100417.91;10468945;28;20055;-82
2021/12/23 23:17:35;;;;;;;88.00;46.70;;;;;;;5.36;93.28;100423.09;10457065;28;20032;-81
2021/12/23 23:22:36;;;;;;;78.70;47.83;;;;;;;5.35;93.16;100426.50;10459454;28;20021;-81
2021/12/23 23:27:41;;;;;;;82.07;47.47;;;;;;;5.39;93.48;100415.50;10494530;28;20064;-81
2021/12/23 23:43:32;;;;;;;86.78;50.67;;;;;;;5.43;93.55;100414.91;10460337;28;20047;-81
2021/12/23 23:48:33;;;;;;;91.93;52.35;;;;;;;5.42;93.83;100407.91;10474853;28;20119;-82
2021/12/23 23:53:33;;;;;;;87.57;46.75;;;;;;;5.40;93.82;100404.31;10460177;28;20028;-82
2021/12/23 23:58:35;;;;;;;78.20;50.00;;;;;;;5.37;94.21;100402.47;10459760;28;20029;-82
